マナウス の空港の天気 - METARとTAF

エドワルド ゴメス国際空港(マナウス) ( SBEG / MAO ) - ブラジル アマゾナス州マナウス
飛行場実況気象(Metar)
観測時間11/30 07:00 AMT (11/30 11:00 UTC)
風向・風速北西 2m/s
視程4000m
天気現象もや
少しの雲 雲底高度 60m
全天の8割程度の雲 雲底高度 210m
全天を覆う雲 雲底高度 3050m
気温24℃
湿度94%
気圧1013hPa
METARSBEG 301100Z 32003KT 4000 BR FEW002 BKN007 OVC100 24/23 Q1013
過去の天気等 Google飛行場航空写真 Wunderground天気予報

過去48時間のMETAR

飛行場予報(TAF)
発表時間: 11/30 05:00 AMT (11/30 09:00 UTC)
予報対象時間: 30日8時 AMT ~ 1日8時 AMT
風向・風速東北東 4m/s
視程8000m
少しの雲 雲底高度 300m
少しの塔状積雲 雲底高度 760m
30日11時 AMT ~ 30日13時 AMT に徐々に
風向・風速南南東 4m/s
全天の4割程度の雲 雲底高度 610m
少しの塔状積雲 雲底高度 760m
30日14時 AMT から 確率 40% で
視程4000m
天気現象雷雨
全天の8割程度の雲 雲底高度 610m
少しの積乱雲 雲底高度 760m
30日18時 AMT ~ 30日20時 AMT に徐々に
風向・風速北西 2m/s
30日20時 AMT ~ 1日2時 AMT に一時的に
視程4000m
天気現象雷雨
全天の8割程度の雲 雲底高度 300m
少しの積乱雲 雲底高度 760m
TAF SBEG 300900Z 3012/0112 06007KT 8000 FEW010 FEW025TCU TX32/3017Z TN24/0109Z
BECMG 3015/3017 16007KT SCT020 FEW025TCU
PROB40 3018/3022 4000 TSRA BKN020 FEW025CB
BECMG 3022/3024 31003KT
TEMPO 0100/0106 4000 TSRA BKN010 FEW025CB RMK PGU